Time;durP1;ratioP1;P1;durP2;ratioP2;P2;SDS_P1;SDS_P2;PMS_P1;PMS_P2;Temp;Humidity;BMP_temperature;BMP_pressure;BME280_temperature;BME280_humidity;BME280_pressure;Samples;Min_cycle;Max_cycle;Signal;HPM_P1;HPM_P2
2023/07/22 00:01:36;;;;;;;0.00;0.00;;;;;;;14.97;100.00;101368.25;5033626;28;20029;-48
2023/07/22 00:04:02;;;;;;;0.00;0.00;;;;;;;14.98;100.00;101369.06;5033181;28;20037;-48
2023/07/22 00:06:27;;;;;;;0.00;0.00;;;;;;;14.96;100.00;101369.28;5033359;28;20033;-48
2023/07/22 00:08:53;;;;;;;0.00;0.00;;;;;;;14.92;100.00;101374.25;5033296;28;20048;-46
2023/07/22 00:11:19;;;;;;;0.00;0.00;;;;;;;14.90;100.00;101375.47;5033051;28;20032;-49
2023/07/22 00:13:45;;;;;;;0.00;0.00;;;;;;;14.80;100.00;101369.59;5033481;28;20100;-50
2023/07/22 00:16:10;;;;;;;0.00;0.00;;;;;;;14.77;100.00;101364.53;5033000;28;20051;-46
2023/07/22 00:18:36;;;;;;;0.00;0.00;;;;;;;14.77;100.00;101361.84;5033634;28;20426;-46
2023/07/22 00:21:02;;;;;;;0.00;0.00;;;;;;;14.78;100.00;101355.41;5033790;28;20041;-50
2023/07/22 00:23:27;;;;;;;0.00;0.00;;;;;;;14.77;100.00;101351.00;5034061;28;20484;-47
2023/07/22 00:25:53;;;;;;;0.00;0.00;;;;;;;14.75;100.00;101344.97;5033609;28;20293;-46
2023/07/22 00:28:18;;;;;;;0.00;0.00;;;;;;;14.74;100.00;101341.38;5033925;28;20069;-46
2023/07/22 00:30:44;;;;;;;0.00;0.00;;;;;;;14.76;100.00;101350.16;5032341;28;20052;-47
2023/07/22 00:33:09;;;;;;;0.00;0.00;;;;;;;14.75;100.00;101344.97;5033271;28;20431;-45
2023/07/22 00:35:35;;;;;;;0.00;0.00;;;;;;;14.77;100.00;101337.44;5033705;28;20033;-46
2023/07/22 00:38:01;;;;;;;0.00;0.00;;;;;;;14.75;100.00;101350.38;5033924;28;20037;-47
2023/07/22 00:40:26;;;;;;;0.00;0.00;;;;;;;14.70;100.00;101349.09;5033113;28;20030;-50
2023/07/22 00:42:52;;;;;;;0.00;0.00;;;;;;;14.69;100.00;101351.97;5032219;28;20025;-48
2023/07/22 00:45:17;;;;;;;0.00;0.00;;;;;;;14.69;100.00;101347.41;5032892;28;20026;-47
2023/07/22 00:47:43;;;;;;;0.00;0.00;;;;;;;14.71;100.00;101347.19;5032790;28;20038;-49
2023/07/22 00:50:09;;;;;;;0.00;0.00;;;;;;;14.74;100.00;101340.56;5048108;28;20041;-49
2023/07/22 00:52:34;;;;;;;0.00;0.00;;;;;;;14.76;100.00;101338.50;5032583;28;20030;-47
2023/07/22 00:55:01;;;;;;;0.00;0.00;;;;;;;14.79;100.00;101340.81;5048058;28;20030;-49
2023/07/22 00:57:26;;;;;;;0.00;0.00;;;;;;;14.77;100.00;101335.59;5032367;28;20049;-45
2023/07/22 00:59:51;;;;;;;0.00;0.00;;;;;;;14.78;100.00;101331.84;5033105;28;20487;-49
2023/07/22 01:02:18;;;;;;;0.00;0.00;;;;;;;14.79;100.00;101335.38;5034760;28;20437;-46
2023/07/22 01:04:43;;;;;;;0.00;0.00;;;;;;;14.75;100.00;101332.25;5036334;28;20022;-45
2023/07/22 01:07:10;;;;;;;0.00;0.00;;;;;;;14.70;100.00;101332.00;5033433;28;20026;-46
2023/07/22 01:09:40;;;;;;;0.00;0.00;;;;;;;14.67;100.00;101327.81;5032163;28;20288;-47
2023/07/22 01:12:06;;;;;;;0.00;0.00;;;;;;;14.65;100.00;101332.56;5048380;28;20033;-46
2023/07/22 01:14:36;;;;;;;0.00;0.00;;;;;;;14.66;100.00;101328.00;5032342;28;20029;-44
2023/07/22 01:17:06;;;;;;;0.00;0.00;;;;;;;14.67;100.00;101322.38;5031095;28;20029;-47
2023/07/22 01:19:32;;;;;;;0.00;0.00;;;;;;;14.66;100.00;101317.16;5031680;28;20037;-47
2023/07/22 01:22:00;;;;;;;0.00;0.00;;;;;;;14.68;100.00;101317.81;5031733;28;20033;-48
2023/07/22 01:24:26;;;;;;;0.00;0.00;;;;;;;14.69;100.00;101320.31;5031975;28;20029;-47
2023/07/22 01:26:51;;;;;;;0.00;0.00;;;;;;;14.69;100.00;101311.34;5030952;28;20527;-47
2023/07/22 01:29:16;;;;;;;0.00;0.00;;;;;;;14.66;100.00;101320.69;5032270;28;20375;-44
2023/07/22 01:31:47;;;;;;;0.00;0.00;;;;;;;14.65;100.00;101313.63;5032920;28;20075;-46
2023/07/22 01:34:12;;;;;;;0.00;0.00;;;;;;;14.68;100.00;101313.22;5031852;28;20026;-46
2023/07/22 01:36:38;;;;;;;0.00;0.00;;;;;;;14.66;100.00;101312.56;5032234;28;20397;-47
2023/07/22 01:39:05;;;;;;;0.00;0.00;;;;;;;14.65;100.00;101301.94;5032612;28;20037;-45
2023/07/22 01:41:31;;;;;;;0.00;0.00;;;;;;;14.65;100.00;101304.66;5032438;28;20025;-47
2023/07/22 01:43:56;;;;;;;0.00;0.00;;;;;;;14.63;100.00;101299.41;5032084;28;20029;-47
2023/07/22 01:46:21;;;;;;;0.00;0.00;;;;;;;14.66;100.00;101304.44;5032476;28;20033;-47
2023/07/22 01:48:47;;;;;;;0.00;0.00;;;;;;;14.67;100.00;101302.59;5032425;28;20052;-46
2023/07/22 01:51:12;;;;;;;0.00;0.00;;;;;;;14.65;100.00;101305.47;5033093;28;20121;-46
2023/07/22 01:53:38;;;;;;;0.00;0.00;;;;;;;14.63;100.00;101299.41;5032530;28;20021;-48
2023/07/22 01:56:04;;;;;;;0.00;0.00;;;;;;;14.62;100.00;101302.34;5032538;28;20033;-46
2023/07/22 01:58:30;;;;;;;0.00;0.00;;;;;;;14.58;100.00;101299.19;5032882;28;20124;-47
2023/07/22 02:00:55;;;;;;;0.00;0.00;;;;;;;14.61;100.00;101296.09;5031801;28;20056;-45
2023/07/22 02:03:21;;;;;;;0.00;0.00;;;;;;;14.64;100.00;101294.84;5033535;28;20108;-45
2023/07/22 02:05:46;;;;;;;0.00;0.00;;;;;;;14.65;100.00;101293.81;5033069;28;20547;-46
2023/07/22 02:08:11;;;;;;;0.00;0.00;;;;;;;14.67;100.00;101300.72;5033417;28;20375;-47
2023/07/22 02:10:37;;;;;;;0.00;0.00;;;;;;;14.67;100.00;101299.88;5044704;28;20029;-46
2023/07/22 02:13:04;;;;;;;0.00;0.00;;;;;;;14.62;100.00;101292.34;5051768;28;20546;-46
2023/07/22 02:15:30;;;;;;;0.00;0.00;;;;;;;14.64;100.00;101297.53;5052796;28;20386;-47
2023/07/22 02:17:56;;;;;;;0.00;0.00;;;;;;;14.61;100.00;101293.38;5050717;28;20029;-47
2023/07/22 02:20:21;;;;;;;0.00;0.00;;;;;;;14.60;100.00;101290.88;5051604;28;20556;-47
2023/07/22 02:22:47;;;;;;;0.00;0.00;;;;;;;14.59;100.00;101286.50;5052111;28;20076;-49
2023/07/22 02:25:14;;;;;;;0.00;0.00;;;;;;;14.56;100.00;101287.72;5050374;28;20035;-48
2023/07/22 02:27:40;;;;;;;0.00;0.00;;;;;;;14.52;100.00;101290.97;5051252;28;20025;-47
2023/07/22 02:30:10;;;;;;;0.00;0.00;;;;;;;14.53;100.00;101293.50;5050860;28;20028;-48
2023/07/22 02:32:36;;;;;;;0.00;0.00;;;;;;;14.53;100.00;101295.38;5050808;28;20564;-45
2023/07/22 02:35:02;;;;;;;0.00;0.00;;;;;;;14.48;100.00;101291.38;5050631;28;20035;-47
2023/07/22 02:37:27;;;;;;;0.00;0.00;;;;;;;14.49;100.00;101282.22;5050704;28;20447;-45
2023/07/22 02:39:55;;;;;;;0.00;0.00;;;;;;;14.50;100.00;101289.28;5050617;28;20471;-46
2023/07/22 02:42:20;;;;;;;0.00;0.00;;;;;;;14.50;100.00;101283.88;5050512;28;20036;-47
2023/07/22 02:44:46;;;;;;;0.00;0.00;;;;;;;14.54;100.00;101278.13;5050596;28;20283;-47
2023/07/22 02:47:11;;;;;;;0.00;0.00;;;;;;;14.56;100.00;101285.03;5050461;28;20064;-48
2023/07/22 02:49:37;;;;;;;0.00;0.00;;;;;;;14.57;100.00;101278.56;5050354;28;20021;-45
2023/07/22 02:52:02;;;;;;;0.00;0.00;;;;;;;14.60;100.00;101280.88;5050344;28;20100;-46
2023/07/22 02:54:28;;;;;;;0.00;0.00;;;;;;;14.61;100.00;101285.25;5050507;28;20036;-47
2023/07/22 02:56:53;;;;;;;0.00;0.00;;;;;;;14.65;100.00;101281.09;5054539;28;20052;-45
2023/07/22 02:59:18;;;;;;;0.00;0.00;;;;;;;14.68;100.00;101286.13;5054509;28;20021;-48
2023/07/22 03:01:44;;;;;;;0.00;0.00;;;;;;;14.73;100.00;101277.41;5054429;28;20021;-44
2023/07/22 03:04:09;;;;;;;0.00;0.00;;;;;;;14.75;100.00;101279.94;5052839;28;20052;-48
2023/07/22 03:06:35;;;;;;;0.00;0.00;;;;;;;14.74;100.00;101279.06;5054904;28;20378;-46
2023/07/22 03:09:00;;;;;;;0.00;0.00;;;;;;;14.71;100.00;101280.31;5054608;28;20033;-46
2023/07/22 03:11:26;;;;;;;0.00;0.00;;;;;;;14.68;100.00;101272.56;5054853;28;20029;-48
2023/07/22 03:13:53;;;;;;;0.00;0.00;;;;;;;14.68;100.00;101274.47;5054208;28;20122;-45
2023/07/22 03:16:18;;;;;;;0.00;0.00;;;;;;;14.62;100.00;101269.84;5054078;28;20564;-45
2023/07/22 03:18:44;;;;;;;0.00;0.00;;;;;;;14.59;100.00;101278.38;5054150;28;20025;-47
2023/07/22 03:21:09;;;;;;;0.00;0.00;;;;;;;14.52;100.00;101272.84;5053845;28;20102;-46
2023/07/22 03:23:35;;;;;;;0.00;0.00;;;;;;;14.52;100.00;101275.56;5053814;28;20078;-45
2023/07/22 03:26:01;;;;;;;0.00;0.00;;;;;;;14.48;100.00;101280.56;5052288;28;20104;-44
2023/07/22 03:28:26;;;;;;;0.00;0.00;;;;;;;14.47;100.00;101280.72;5053618;28;20025;-45
2023/07/22 03:30:52;;;;;;;0.00;0.00;;;;;;;14.46;100.00;101282.63;5052754;28;20433;-46
2023/07/22 03:33:18;;;;;;;0.00;0.00;;;;;;;14.45;100.00;101288.22;5053835;28;20574;-45
2023/07/22 03:35:43;;;;;;;0.00;0.00;;;;;;;14.45;100.00;101296.34;5054003;28;20194;-48
2023/07/22 03:38:09;;;;;;;0.00;0.00;;;;;;;14.45;100.00;101297.16;5053888;28;20064;-45
2023/07/22 03:40:34;;;;;;;0.00;0.00;;;;;;;14.45;100.00;101299.03;5053864;28;20047;-47
2023/07/22 03:42:59;;;;;;;0.00;0.00;;;;;;;14.42;100.00;101296.72;5053740;28;20073;-46
2023/07/22 03:45:25;;;;;;;0.00;0.00;;;;;;;14.42;100.00;101292.16;5053795;28;20021;-45
2023/07/22 03:47:52;;;;;;;0.00;0.00;;;;;;;14.43;100.00;101298.44;5054671;28;20060;-47
2023/07/22 03:50:18;;;;;;;0.00;0.00;;;;;;;14.44;100.00;101300.91;5054738;28;20032;-47
2023/07/22 03:52:43;;;;;;;0.00;0.00;;;;;;;14.43;100.00;101295.72;5054573;28;20021;-47
2023/07/22 03:55:09;;;;;;;0.00;0.00;;;;;;;14.40;100.00;101290.66;5054091;28;20029;-46
2023/07/22 03:57:34;;;;;;;0.00;0.00;;;;;;;14.35;100.00;101295.84;5036325;28;20072;-49
2023/07/22 04:00:00;;;;;;;0.00;0.00;;;;;;;14.33;100.00;101297.91;5054355;28;20468;-47
2023/07/22 04:02:25;;;;;;;0.00;0.00;;;;;;;14.38;100.00;101292.75;5054482;28;20025;-43
2023/07/22 04:04:53;;;;;;;0.00;0.00;;;;;;;14.39;100.00;101286.31;5053982;28;20032;-49
2023/07/22 04:07:18;;;;;;;0.00;0.00;;;;;;;14.46;100.00;101287.19;5052701;28;20033;-50
2023/07/22 04:09:45;;;;;;;0.00;0.00;;;;;;;14.51;100.00;101279.31;5053347;28;20075;-49
2023/07/22 04:12:10;;;;;;;0.00;0.00;;;;;;;14.58;100.00;101274.78;5053916;28;20036;-46
2023/07/22 04:14:36;;;;;;;0.00;0.00;;;;;;;14.64;100.00;101267.75;5053642;28;20037;-45
2023/07/22 04:17:04;;;;;;;0.00;0.00;;;;;;;14.69;100.00;101270.69;5054225;28;20048;-46
2023/07/22 04:19:29;;;;;;;0.00;0.00;;;;;;;14.76;100.00;101259.91;5054393;28;20072;-44
2023/07/22 04:21:54;;;;;;;0.00;0.00;;;;;;;14.80;100.00;101255.78;5053134;28;20060;-48
2023/07/22 04:24:20;;;;;;;0.00;0.00;;;;;;;14.86;100.00;101260.41;5053043;28;20036;-47
2023/07/22 04:26:45;;;;;;;0.00;0.00;;;;;;;14.90;100.00;101267.06;5052833;28;20056;-45
2023/07/22 04:29:12;;;;;;;0.00;0.00;;;;;;;14.95;100.00;101264.59;5053050;28;20025;-46
2023/07/22 04:31:37;;;;;;;0.00;0.00;;;;;;;14.95;100.00;101272.72;5052736;28;20108;-46
2023/07/22 04:34:03;;;;;;;0.00;0.00;;;;;;;14.96;100.00;101277.13;5052577;28;20108;-46
2023/07/22 04:36:28;;;;;;;0.00;0.00;;;;;;;15.00;100.00;101272.97;5052840;28;20112;-46
2023/07/22 04:38:53;;;;;;;0.00;0.00;;;;;;;15.05;100.00;101273.22;5052736;28;20025;-45
2023/07/22 04:41:19;;;;;;;0.00;0.00;;;;;;;15.07;100.00;101279.28;5052560;28;20056;-44
2023/07/22 04:43:44;;;;;;;0.00;0.00;;;;;;;15.10;100.00;101281.56;5052924;28;20447;-45
2023/07/22 04:46:10;;;;;;;0.00;0.00;;;;;;;15.12;100.00;101281.38;5050932;28;20151;-46
2023/07/22 04:48:36;;;;;;;0.00;0.00;;;;;;;15.14;100.00;101295.59;5052399;28;20036;-46
2023/07/22 04:51:02;;;;;;;0.00;0.00;;;;;;;15.17;100.00;101294.34;5052184;28;20028;-47
2023/07/22 04:53:27;;;;;;;0.00;0.00;;;;;;;15.21;100.00;101292.88;5052106;28;20037;-48
2023/07/22 04:55:54;;;;;;;0.00;0.00;;;;;;;15.24;100.00;101301.44;5052145;28;20056;-45
2023/07/22 04:58:20;;;;;;;0.00;0.00;;;;;;;15.27;100.00;101300.19;5051943;28;20122;-44
2023/07/22 05:00:45;;;;;;;0.00;0.00;;;;;;;15.29;100.00;101306.28;5052058;28;20283;-46
2023/07/22 05:03:11;;;;;;;0.00;0.00;;;;;;;15.29;100.00;101303.56;5052102;28;20025;-46
2023/07/22 05:05:36;;;;;;;0.00;0.00;;;;;;;15.30;100.00;101299.81;5051933;28;20025;-47
2023/07/22 05:08:01;;;;;;;0.00;0.00;;;;;;;15.32;100.00;101305.84;5052186;28;20036;-47
2023/07/22 05:10:28;;;;;;;0.00;0.00;;;;;;;15.37;100.00;101303.38;5051935;28;20099;-45
2023/07/22 05:12:54;;;;;;;0.00;0.00;;;;;;;15.38;100.00;101307.78;5050497;28;20021;-45
2023/07/22 05:15:20;;;;;;;0.00;0.00;;;;;;;15.42;100.00;101309.03;5052102;28;20031;-47
2023/07/22 05:17:46;;;;;;;0.00;0.00;;;;;;;15.40;100.00;101302.13;5051514;28;20527;-45
2023/07/22 05:20:12;;;;;;;0.00;0.00;;;;;;;15.45;100.00;101314.06;5051662;28;20098;-47
2023/07/22 05:22:38;;;;;;;0.00;0.00;;;;;;;15.47;100.00;101306.56;5052017;28;20025;-44
2023/07/22 05:25:05;;;;;;;0.00;0.00;;;;;;;15.47;100.00;101311.16;5050399;28;20130;-47
2023/07/22 05:27:30;;;;;;;0.00;0.00;;;;;;;15.51;100.00;101307.00;5051978;28;20035;-50
2023/07/22 05:29:56;;;;;;;0.00;0.00;;;;;;;15.56;100.00;101305.34;5051924;28;20108;-46
2023/07/22 05:32:21;;;;;;;0.00;0.00;;;;;;;15.58;100.00;101311.38;5052150;28;20033;-44
2023/07/22 05:34:47;;;;;;;0.00;0.00;;;;;;;15.60;100.00;101311.19;5054565;28;20025;-44
2023/07/22 05:37:12;;;;;;;0.00;0.00;;;;;;;15.58;100.00;101308.66;5054141;28;20445;-44
2023/07/22 05:39:37;;;;;;;0.00;0.00;;;;;;;15.68;100.00;101307.47;5052211;28;20025;-44
2023/07/22 05:42:03;;;;;;;0.00;0.00;;;;;;;15.74;100.00;101309.38;5051363;28;20522;-46
2023/07/22 05:44:28;;;;;;;0.00;0.00;;;;;;;15.81;100.00;101302.09;5051488;28;20404;-44
2023/07/22 05:46:55;;;;;;;0.00;0.00;;;;;;;15.85;100.00;101300.66;5051304;28;20406;-44
2023/07/22 05:49:20;;;;;;;0.00;0.00;;;;;;;15.82;100.00;101302.94;5051778;28;20070;-46
2023/07/22 05:51:46;;;;;;;0.00;0.00;;;;;;;15.85;100.00;101303.38;5051259;28;20379;-46
2023/07/22 05:54:11;;;;;;;0.00;0.00;;;;;;;15.91;100.00;101307.97;5051119;28;20532;-47
2023/07/22 05:56:36;;;;;;;0.00;0.00;;;;;;;15.99;100.00;101310.50;5049572;28;20527;-47
2023/07/22 05:59:02;;;;;;;0.00;0.00;;;;;;;16.02;100.00;101299.22;5051041;28;20033;-47
2023/07/22 06:01:27;;;;;;;0.00;0.00;;;;;;;16.12;100.00;101303.41;5050960;28;20329;-46
2023/07/22 06:03:53;;;;;;;0.00;0.00;;;;;;;16.13;100.00;101300.47;5051053;28;20391;-44
2023/07/22 06:06:18;;;;;;;0.00;0.00;;;;;;;16.22;100.00;101295.69;5050665;28;20060;-49
2023/07/22 06:08:43;;;;;;;0.00;0.00;;;;;;;16.26;100.00;101296.09;5050793;28;20017;-45
2023/07/22 06:11:09;;;;;;;0.00;0.00;;;;;;;16.33;100.00;101295.06;5050652;28;20064;-50
2023/07/22 06:13:35;;;;;;;0.00;0.00;;;;;;;16.26;100.00;101291.50;5050833;28;20029;-48
2023/07/22 06:16:00;;;;;;;0.00;0.00;;;;;;;16.21;100.00;101294.00;5050504;28;20036;-49
2023/07/22 06:18:25;;;;;;;0.00;0.00;;;;;;;16.18;100.00;101286.28;5050765;28;20450;-46
2023/07/22 06:20:51;;;;;;;0.00;0.00;;;;;;;16.27;100.00;101290.44;5050850;28;20167;-47
2023/07/22 06:23:16;;;;;;;0.00;0.00;;;;;;;16.27;100.00;101285.03;5051137;28;20032;-48
2023/07/22 06:25:41;;;;;;;0.00;0.00;;;;;;;16.35;100.00;101287.56;5050751;28;20025;-45
2023/07/22 06:28:07;;;;;;;0.00;0.00;;;;;;;16.45;100.00;101282.50;5051020;28;20032;-47
2023/07/22 06:30:32;;;;;;;0.00;0.00;;;;;;;16.56;100.00;101286.50;5050091;28;20028;-46
2023/07/22 06:32:58;;;;;;;0.00;0.00;;;;;;;16.56;100.00;101274.75;5051585;28;20498;-47
2023/07/22 06:35:23;;;;;;;0.00;0.00;;;;;;;16.47;100.00;101279.59;5051524;28;20402;-49
2023/07/22 06:37:48;;;;;;;0.00;0.00;;;;;;;16.54;100.00;101279.59;5051335;28;20029;-49
2023/07/22 06:40:14;;;;;;;0.00;0.00;;;;;;;16.37;100.00;101280.00;5050786;28;20323;-48
2023/07/22 06:42:39;;;;;;;0.00;0.00;;;;;;;16.48;100.00;101275.00;5050527;28;20033;-46
2023/07/22 06:45:05;;;;;;;0.00;0.00;;;;;;;16.49;100.00;101273.97;5051008;28;20025;-46
2023/07/22 06:47:31;;;;;;;0.00;0.00;;;;;;;16.52;100.00;101277.09;5050447;28;20641;-46
2023/07/22 06:49:56;;;;;;;0.00;0.00;;;;;;;16.61;100.00;101272.25;5049389;28;20395;-46
2023/07/22 06:52:22;;;;;;;0.00;0.00;;;;;;;16.72;100.00;101279.78;5050338;28;20104;-51
2023/07/22 06:54:48;;;;;;;0.00;0.00;;;;;;;16.71;100.00;101279.97;5050592;28;20503;-50
2023/07/22 06:57:13;;;;;;;0.00;0.00;;;;;;;16.70;100.00;101281.88;5050136;28;20098;-48
2023/07/22 06:59:38;;;;;;;0.00;0.00;;;;;;;16.77;100.00;101285.44;5050616;28;20025;-50
2023/07/22 07:02:07;;;;;;;0.00;0.00;;;;;;;16.85;100.00;101279.78;5050451;28;20390;-47
2023/07/22 07:04:32;;;;;;;0.00;0.00;;;;;;;16.87;100.00;101280.38;5050394;28;20476;-48
2023/07/22 07:06:59;;;;;;;0.00;0.00;;;;;;;16.91;100.00;101279.97;5050261;28;20029;-48
2023/07/22 07:09:25;;;;;;;0.00;0.00;;;;;;;16.89;100.00;101283.72;5050365;28;20424;-46
2023/07/22 07:11:50;;;;;;;0.00;0.00;;;;;;;16.80;100.00;101285.03;5050596;28;20164;-45
2023/07/22 07:14:16;;;;;;;0.00;0.00;;;;;;;16.82;100.00;101277.47;5050734;28;20025;-46
2023/07/22 07:16:41;;;;;;;0.00;0.00;;;;;;;16.82;100.00;101272.03;5050288;28;20037;-49
2023/07/22 07:19:06;;;;;;;0.00;0.00;;;;;;;16.84;100.00;101275.38;5050404;28;20033;-46
2023/07/22 07:21:32;;;;;;;0.00;0.00;;;;;;;16.81;100.00;101280.41;5048900;28;20025;-45
2023/07/22 07:23:57;;;;;;;0.00;0.00;;;;;;;16.64;100.00;101271.81;5050390;28;20025;-47
2023/07/22 07:26:23;;;;;;;0.00;0.00;;;;;;;16.74;100.00;101285.81;5050374;28;20108;-46
2023/07/22 07:28:50;;;;;;;0.00;0.00;;;;;;;16.74;100.00;101276.84;5050114;28;20364;-48
2023/07/22 07:31:16;;;;;;;0.00;0.00;;;;;;;16.85;100.00;101268.06;5049286;28;20028;-49
2023/07/22 07:33:41;;;;;;;0.00;0.00;;;;;;;16.94;100.00;101269.50;5050643;28;20029;-47
2023/07/22 07:36:07;;;;;;;0.00;0.00;;;;;;;17.09;100.00;101266.53;5050528;28;20124;-47
2023/07/22 07:38:32;;;;;;;0.00;0.00;;;;;;;17.28;100.00;101264.78;5050223;28;20453;-50
2023/07/22 07:40:59;;;;;;;0.00;0.00;;;;;;;17.68;100.00;101257.25;5050787;28;20033;-48
2023/07/22 07:43:25;;;;;;;0.00;0.00;;;;;;;18.19;100.00;101241.81;5053670;28;20028;-47
2023/07/22 07:46:21;;;;;;;0.00;0.00;;;;;;;18.82;100.00;101228.00;5053689;28;20033;-47
2023/07/22 07:48:51;;;;;;;0.00;0.00;;;;;;;18.82;100.00;101213.53;5053768;28;20103;-49
2023/07/22 07:51:18;;;;;;;0.00;0.00;;;;;;;19.03;100.00;101221.25;5053614;28;20021;-49
2023/07/22 07:53:45;;;;;;;0.00;0.00;;;;;;;18.87;100.00;101208.22;5044005;28;20036;-48
2023/07/22 07:56:11;;;;;;;0.00;0.00;;;;;;;18.47;100.00;101208.66;5033726;28;20029;-49
2023/07/22 07:58:37;;;;;;;0.00;0.00;;;;;;;18.19;100.00;101218.16;5033437;28;20069;-46
2023/07/22 08:01:03;;;;;;;0.00;0.00;;;;;;;17.83;100.00;101232.47;5033557;28;20037;-51
2023/07/22 08:03:28;;;;;;;0.40;0.00;;;;;;;17.42;100.00;101244.59;5033468;28;20468;-42
2023/07/22 08:05:54;;;;;;;0.00;0.00;;;;;;;17.09;100.00;101255.66;5032260;28;20063;-45
2023/07/22 08:08:20;;;;;;;0.00;0.00;;;;;;;16.68;100.00;101264.94;5033594;28;20155;-49
2023/07/22 08:10:45;;;;;;;0.00;0.00;;;;;;;16.52;100.00;101263.50;5033272;28;20069;-50
2023/07/22 08:13:11;;;;;;;0.00;0.00;;;;;;;16.46;100.00;101267.91;5033469;28;20057;-48
2023/07/22 08:15:36;;;;;;;0.00;0.00;;;;;;;16.48;100.00;101280.41;5033311;28;20113;-49
2023/07/22 08:18:02;;;;;;;0.00;0.00;;;;;;;16.55;100.00;101282.09;5033085;28;20067;-49
2023/07/22 08:20:29;;;;;;;0.00;0.00;;;;;;;16.55;100.00;101281.25;5033338;28;20029;-50
2023/07/22 08:22:54;;;;;;;0.00;0.00;;;;;;;16.66;100.00;101286.88;5031553;28;20542;-48
2023/07/22 08:25:20;;;;;;;0.00;0.00;;;;;;;16.52;100.00;101300.69;5032958;28;20372;-49
2023/07/22 08:27:45;;;;;;;0.00;0.00;;;;;;;16.53;100.00;101294.22;5032775;28;20061;-49
2023/07/22 08:30:11;;;;;;;0.00;0.00;;;;;;;16.42;100.00;101292.97;5031515;28;20033;-48
2023/07/22 08:32:36;;;;;;;0.00;0.00;;;;;;;16.32;100.00;101287.94;5033165;28;20025;-47
2023/07/22 08:35:01;;;;;;;0.00;0.00;;;;;;;16.26;100.00;101272.50;5032681;28;20079;-47
2023/07/22 08:37:27;;;;;;;0.00;0.00;;;;;;;16.30;100.00;101290.06;5032618;28;20049;-48
2023/07/22 08:39:52;;;;;;;0.00;0.00;;;;;;;16.32;100.00;101287.13;5032588;28;20399;-48
2023/07/22 08:42:19;;;;;;;0.00;0.00;;;;;;;16.42;100.00;101287.53;5032924;28;20033;-52
2023/07/22 08:44:48;;;;;;;0.00;0.00;;;;;;;16.69;100.00;101296.50;5032597;28;20056;-49
2023/07/22 08:47:16;;;;;;;0.00;0.00;;;;;;;16.89;100.00;101289.16;5031551;28;20072;-50
2023/07/22 08:49:48;;;;;;;0.00;0.00;;;;;;;17.13;100.00;101289.53;5032176;28;20376;-48
2023/07/22 08:52:14;;;;;;;0.00;0.00;;;;;;;17.22;100.00;101273.78;5047685;28;20033;-46
2023/07/22 08:54:40;;;;;;;0.00;0.00;;;;;;;17.01;100.00;101242.28;5030617;28;20029;-46
2023/07/22 08:57:06;;;;;;;0.00;0.00;;;;;;;17.09;100.00;101233.91;5032394;28;20629;-46
2023/07/22 08:59:32;;;;;;;0.00;0.00;;;;;;;17.10;100.00;101224.69;5032165;28;20034;-45
2023/07/22 09:01:58;;;;;;;0.00;0.00;;;;;;;17.16;100.00;101223.81;5031132;28;20037;-49
2023/07/22 09:04:23;;;;;;;0.00;0.00;;;;;;;17.22;100.00;101222.97;5032009;28;20029;-45
2023/07/22 09:06:49;;;;;;;0.00;0.00;;;;;;;17.33;100.00;101226.88;5032002;28;20021;-47
2023/07/22 09:09:15;;;;;;;0.00;0.00;;;;;;;17.49;100.00;101220.94;5047789;28;20022;-47
2023/07/22 09:11:41;;;;;;;0.00;0.00;;;;;;;17.64;100.00;101220.63;5030789;28;20041;-48
2023/07/22 09:14:07;;;;;;;0.00;0.00;;;;;;;17.87;100.00;101220.06;5030719;28;20028;-50
2023/07/22 09:16:32;;;;;;;0.00;0.00;;;;;;;17.80;100.00;101210.28;5030723;28;20030;-49
2023/07/22 09:18:58;;;;;;;0.00;0.00;;;;;;;17.70;100.00;101202.59;5031863;28;20033;-49
2023/07/22 09:21:24;;;;;;;0.00;0.00;;;;;;;17.54;100.00;101212.94;5047053;28;20060;-47
2023/07/22 09:23:49;;;;;;;0.00;0.00;;;;;;;17.32;100.00;101226.06;5032073;28;20108;-48
2023/07/22 09:26:18;;;;;;;0.00;0.00;;;;;;;17.14;100.00;101247.69;5031904;28;20079;-47
2023/07/22 09:28:56;;;;;;;0.00;0.00;;;;;;;16.86;100.00;101267.84;5031658;28;20499;-48
2023/07/22 09:31:23;;;;;;;0.00;0.00;;;;;;;16.59;100.00;101263.50;5031495;28;20036;-47
2023/07/22 09:33:49;;;;;;;0.00;0.00;;;;;;;16.23;100.00;101268.31;5031468;28;20491;-50
2023/07/22 09:36:14;;;;;;;0.00;0.00;;;;;;;16.02;100.00;101280.22;5031837;28;20059;-46
2023/07/22 09:38:39;;;;;;;0.00;0.00;;;;;;;15.74;100.00;101284.97;5032094;28;20397;-44
2023/07/22 09:41:05;;;;;;;0.00;0.00;;;;;;;15.55;100.00;101298.22;5031645;28;20510;-47
2023/07/22 09:43:31;;;;;;;0.00;0.00;;;;;;;15.39;100.00;101306.72;5032122;28;20032;-48
2023/07/22 09:46:06;;;;;;;0.00;0.00;;;;;;;15.26;100.00;101296.66;5031045;28;20025;-48
2023/07/22 09:48:40;;;;;;;0.00;0.00;;;;;;;15.17;100.00;101295.19;5031512;28;20108;-48
2023/07/22 09:51:06;;;;;;;0.00;0.00;;;;;;;15.15;100.00;101300.78;5031480;28;20432;-48
2023/07/22 09:53:31;;;;;;;0.00;0.00;;;;;;;15.12;100.00;101303.91;5031477;28;20029;-51
2023/07/22 09:56:03;;;;;;;0.00;0.00;;;;;;;15.14;100.00;101301.84;5029970;28;20057;-49
2023/07/22 09:58:30;;;;;;;0.00;0.00;;;;;;;15.11;100.00;101301.38;5031108;28;20075;-49
2023/07/22 10:00:55;;;;;;;0.00;0.00;;;;;;;15.22;100.00;101297.25;5031289;28;20116;-48
2023/07/22 10:03:22;;;;;;;0.00;0.00;;;;;;;15.27;100.00;101298.34;5048436;28;20056;-45
2023/07/22 10:05:48;;;;;;;0.00;0.00;;;;;;;15.31;100.00;101298.78;5031891;28;20140;-44
2023/07/22 10:08:15;;;;;;;0.00;0.00;;;;;;;15.43;100.00;101283.59;5031692;28;20527;-44
2023/07/22 10:10:43;;;;;;;0.00;0.00;;;;;;;15.65;100.00;101287.00;5029966;28;20028;-46
2023/07/22 10:13:09;;;;;;;0.00;0.00;;;;;;;15.82;100.00;101292.06;5029852;28;20036;-45
2023/07/22 10:15:35;;;;;;;0.00;0.00;;;;;;;15.92;100.00;101296.06;5030622;28;20022;-44
2023/07/22 10:18:01;;;;;;;0.00;0.00;;;;;;;16.00;100.00;101295.88;5029412;28;20036;-46
2023/07/22 10:20:28;;;;;;;0.00;0.00;;;;;;;16.01;100.00;101294.84;5031114;28;20782;-49
2023/07/22 10:22:54;;;;;;;0.00;0.00;;;;;;;16.07;100.00;101289.63;5032604;28;20033;-46
2023/07/22 10:25:21;;;;;;;0.00;0.00;;;;;;;16.20;100.00;101278.78;5030616;28;20029;-47
2023/07/22 10:27:49;;;;;;;0.00;0.00;;;;;;;16.36;100.00;101277.50;5047893;28;20029;-49
2023/07/22 10:30:16;;;;;;;0.00;0.00;;;;;;;16.48;100.00;101267.66;5031953;28;20048;-48
2023/07/22 10:32:43;;;;;;;0.00;0.00;;;;;;;16.71;100.00;101280.81;5031838;28;20037;-49
2023/07/22 10:35:17;;;;;;;0.00;0.00;;;;;;;17.04;100.00;101274.50;5031507;28;20039;-48
2023/07/22 10:37:45;;;;;;;0.00;0.00;;;;;;;17.20;100.00;101263.16;5031250;28;20030;-47
2023/07/22 10:40:26;;;;;;;0.00;0.00;;;;;;;17.30;100.00;101254.53;5030824;28;20030;-46
2023/07/22 10:43:04;;;;;;;0.00;0.00;;;;;;;17.52;100.00;101249.59;5031101;28;20034;-45
2023/07/22 10:45:34;;;;;;;0.00;0.00;;;;;;;17.62;100.00;101251.84;5030700;28;20025;-48
2023/07/22 10:48:06;;;;;;;0.00;0.00;;;;;;;17.85;100.00;101245.84;5045972;28;20029;-47
2023/07/22 10:50:38;;;;;;;0.00;0.00;;;;;;;18.00;100.00;101243.66;5030547;28;20487;-50
2023/07/22 10:53:04;;;;;;;0.00;0.00;;;;;;;18.08;100.00;101224.28;5030528;28;20383;-48
2023/07/22 10:55:29;;;;;;;0.00;0.00;;;;;;;18.39;100.00;101225.28;5030336;28;20045;-50
2023/07/22 10:57:55;;;;;;;0.00;0.00;;;;;;;18.50;100.00;101221.81;5030266;28;20079;-47
2023/07/22 11:00:21;;;;;;;0.00;0.00;;;;;;;18.96;100.00;101217.78;5030629;28;20440;-50
2023/07/22 11:03:07;;;;;;;0.00;0.00;;;;;;;19.11;100.00;101208.34;5030276;28;20029;-47
2023/07/22 11:05:52;;;;;;;0.00;0.00;;;;;;;19.23;100.00;101204.63;5030122;28;20188;-47
2023/07/22 11:08:39;;;;;;;0.00;0.00;;;;;;;19.32;100.00;101199.66;5031246;28;20030;-47
2023/07/22 11:11:05;;;;;;;0.00;0.00;;;;;;;19.78;100.00;101191.91;5031666;28;20029;-48
2023/07/22 11:13:35;;;;;;;0.00;0.00;;;;;;;19.98;100.00;101207.97;5030866;28;20101;-49